Aviation Digital Data Service (ADDS)

Output produced by METARs form (0057 UTC 22 September 2017)
found at http://www.aviationweather.gov/adds/metars/
 
TAF KFAF 211800Z 2118/2224 34009KT 9999 FEW040 QNH2999INS 
     BECMG 2123/2124 VRB06KT 9999 SCT030 BKN050 QNH3002INS 
     BECMG 2212/2213 32006KT 9999 SCT020 QNH2999INS 
     BECMG 2220/2221 29006KT 9999 SCT160 QNH2999INS TX33/2119Z TN21/2212Z LAST NO AMDS AFT 2203 NEXT 2210
       
KFAR 212336Z 2200/2224 15014KT P6SM SCT040 
     FM220900 10006KT P6SM SCT050 
     FM221100 07007KT P6SM BKN045 
     FM221200 06007KT P6SM BKN030 
     FM221400 08007KT P6SM BKN015 
     FM221600 11008KT P6SM BKN010 
     FM222100 15007KT P6SM BKN040
       
KFAT 212320Z 2200/2224 32007KT P6SM SCT050 
     FM220600 VRB03KT P6SM SKC
       
KFAY 212320Z 2200/2224 VRB04KT P6SM SCT250 
     TEMPO 2210/2212 4SM BR
       
TAF AMD KFBG 211850Z 2118/2223 01006KT 9999 SCT045 QNH2996INS 
     BECMG 2118/2119 36009KT 8000 -SHRA BKN048 BKN120 QNH2993INS 
     TEMPO 2119/2201 VRB15G25KT 6000 -TSRA SCT025 BKN035CB 
     BECMG 2200/2201 04006KT 9999 NSW FEW015 BKN030 QNH2997INS 
     BECMG 2205/2206 VRB06KT 8000 BR FEW015 BKN030 QNH3001INS 
     BECMG 2212/2213 35006KT 9999 NSW FEW035 QNH2998INS TX32/2121Z TN19/2212Z
       
TAF KFCS 212104Z 2121/2303 17012G18KT 9999 SKC 510009 QNH2972INS 
     TEMPO 2121/2124 17015G25KT 520009 
     BECMG 2200/2201 18009KT 9999 SKC 520309 QNH2973INS 
     BECMG 2214/2215 20012KT 9999 SKC 520403 560709 QNH2977INS 
     BECMG 2216/2217 21015G25KT 9999 SCT080 530007 560709 QNH2976INS 
     TEMPO 2220/2224 21025G40KT 560009 TX31/2121Z TN11/2212Z
       
KFDY 212324Z 2200/2224 VRB03KT P6SM FEW200 
     FM221100 00000KT 4SM BR SCT200 
     FM221300 VRB03KT P6SM SCT200
       
TAF AMD KFFO 212100Z 2121/2217 21003KT 9999 SCT050 SCT100 BKN250 QNH3002INS 
     TEMPO 2121/2123 18015G25KT 4800 -TSRA BKN020CB OVC250 
     BECMG 2207/2208 17006KT 4800 BR FEW020 QNH3008INS 
     BECMG 2211/2212 18006KT 9999 NSW FEW050 QNH3006INS TX32/2121Z TN22/2211Z
       
TAF KFHU 211801Z 2118/2300 20015G25KT 9999 FEW035 FEW150 QNH3001INS 
     TEMPO 2120/2124 21020G30KT 530007 
     BECMG 2201/2202 21012KT 9999 SKC QNH2989INS 
     BECMG 2217/2218 21015G25KT 9999 FEW070 QNH2990INS 
     TEMPO 2218/2224 21025G35KT 530007 TX31/2122Z TN17/2213Z
       
KFKL 212320Z 2200/2224 VRB02KT P6SM SKC 
     FM220800 00000KT 2SM BR SKC 
     FM220900 00000KT 1SM BR SKC 
     TEMPO 2209/2212 1/4SM FG VV001 
     FM221400 VRB03KT P6SM SKC AMD LTD TO CLD VIS AND WIND
       
KFLG 212330Z 2200/2224 21025G35KT P6SM FEW050 
     FM220400 23015G25KT P6SM FEW040 FEW150 
     FM220700 22012G24KT P6SM BKN030 
     FM221800 21020G30KT P6SM FEW040
       
KFLL 212320Z 2200/2224 04010KT P6SM SCT025 SCT100 
     FM220400 VRB03KT P6SM SCT025 
     FM221200 07008KT P6SM VCSH SCT035 
     PROB30 2216/2222 TSRA BKN030CB
       
KFLO 212336Z 2200/2224 10003KT P6SM SCT060 BKN120 
     FM220200 00000KT P6SM SCT120 BKN250 
     FM220700 00000KT 4SM BR SKC 
     TEMPO 2209/2213 3/4SM BR SCT003 
     FM221400 05005KT P6SM SCT050
       
KFMH 212331Z 2200/2224 03028G42KT P6SM OVC035 
     FM220700 02025G39KT 5SM -RA BR OVC015 
     FM221000 03024G37KT 4SM -SHRA BR OVC015 
     FM221300 02022G36KT 3SM -SHRA BR OVC015 
     FM221500 03019G32KT 2SM -DZ BR VCSH OVC010
       
KFMN 212334Z 2200/2224 22014G24KT P6SM FEW080 
     FM220200 19011KT P6SM SCT080 
     FM221000 11010KT P6SM BKN080 
     FM221600 17010KT P6SM BKN080 
     FM221900 21016G26KT P6SM SCT080
       
KFMY 212323Z 2200/2224 05007KT P6SM FEW050 
     FM220200 VRB04KT P6SM SCT250 
     FM221400 05006KT P6SM SCT025 SCT250 
     FM221800 05008KT P6SM VCTS SCT035CB
       
KFNT 212320Z 2200/2224 16006KT P6SM VCSH SCT060 BKN120 
     FM220200 15005KT P6SM SCT150 
     FM220700 14004KT 4SM BR SCT250 
     FM221000 VRB03KT 2SM BR FEW002 SCT050 
     FM221400 19006KT P6SM FEW250
       
KFOD 212338Z 2200/2224 17011G18KT P6SM FEW040 
     FM220600 17010G17KT P6SM FEW190 WS020/19040KT 
     FM221300 17012G19KT P6SM FEW210 
     FM221700 18018G25KT P6SM SCT100
       
KFOE 212327Z 2200/2224 16014G22KT P6SM FEW150 
     FM220300 17012KT P6SM FEW250 WS012/19045KT 
     FM221400 17011KT P6SM FEW200 
     FM221800 18014G22KT P6SM FEW250
       
KFPR 212320Z 2200/2224 04005KT P6SM VCSH SCT025 SCT250 
     FM221600 07010KT P6SM VCSH SCT030 BKN050
       
TAF KFRI 220000Z 2200/2306 18020G30KT 9999 FEW050 QNH2972INS 
     BECMG 2201/2202 17015G25KT 9999 FEW040 QNH2978INS 
     BECMG 2205/2206 18015KT 9999 FEW040 510102 QNH2983INS 
     BECMG 2214/2215 18020G30KT 9999 FEW040 SCT100 QNH2985INS 
     BECMG 2222/2223 16012KT 9999 SCT050 QNH2982INS TX35/2221Z TN23/2212Z
       
KFSD 212320Z 2200/2224 16011KT P6SM FEW040 
     FM220200 15013KT P6SM SKC WS017/19050KT 
     FM221100 17012KT P6SM FEW120 
     FM221500 18019G29KT P6SM FEW120
       
TAF AMD KFSI 212225Z 2122/2303 16012G18KT 9999 SKC QNH2980INS 
     BECMG 2123/2124 17015G22KT 9999 VCTS SCT050CB QNH2980INS 
     TEMPO 2200/2201 16015G30KT 2400 TSRA BKN050CB 
     BECMG 2200/2201 16010G15KT 9999 NSW SKC QNH2987INS 
     BECMG 2217/2218 19015G20KT 9999 SCT035 QNH2990INS TX34/2122Z TN24/2211Z LAST NO AMDS AFT 2203 NEXT 2213
       
KFSM 212332Z 2200/2224 15007KT P6SM FEW040 FEW250 
     FM220400 07004KT P6SM FEW250 
     FM221400 11008KT P6SM SCT025 
     FM221800 16011KT P6SM SCT045
       
KFST 212320Z 2200/2224 15014G24KT P6SM SCT100
       
TAF KFTK 211700Z 2117/2223 VRB06KT 9999 FEW035 QNH3003INS 
     BECMG 2203/2204 VRB06KT 2000 BR FEW250 QNH3007INS 
     TEMPO 2207/2211 00000KT 0800 FG 
     BECMG 2210/2211 VRB06KT 4800 BR FEW250 QNH3010INS 
     BECMG 2213/2214 VRB06KT 9999 NSW FEW035 QNH3005INS WND 06009KT AFT 2218 TX31/2119Z TN19/2209Z
       
KFTW 212332Z 2200/2224 17012KT P6SM FEW050 SCT250 
     FM221000 17011KT P6SM BKN015 
     FM221400 18013KT P6SM BKN025 
     FM221600 16013KT P6SM SCT040
       
KFTY 212337Z 2200/2224 03004KT P6SM VCSH BKN060 
     FM220200 VRB03KT P6SM FEW060 SCT150 
     FM221800 08004KT P6SM VCSH SCT045
       
KFVE 212320Z 2200/2224 VRB03KT P6SM SKC
       
KFWA 212320Z 2200/2224 18004KT P6SM FEW250
       
KFXE 212320Z 2200/2224 05008KT P6SM SCT025 SCT050 
     FM220200 VRB03KT P6SM SCT025 
     FM221300 07008KT P6SM VCSH SCT035 
     PROB30 2216/2222 TSRA BKN030CB
       
KFYV 212332Z 2200/2224 16011KT P6SM FEW040 FEW250 
     FM220100 16005KT P6SM FEW250 
     FM221400 19008KT P6SM SCT025 
     FM221800 17010G16KT P6SM SCT035